Arnold, Maryland
Current Conditions -  °F | °C
As of 3:54 AM on Saturday 20 Dec 2014 (Local Time) from KNAK Reporting Station
Clear Clear  
Wind Chill: 26°   Ceiling: Unl
Heat Index: 32°   Visibility: 10mi
Dew Point: 22°   Wind: 6mph
Humidity: 66%   Direction: 310°NW
Pressure: 30.25"   Gusts: NA
Location:  39.03°N, 76.51°W
Report Text: KNAK 200854Z AUTO 31005KT 10SM CLR 00/M06 A3025 RMK AO2 SLP245 T00001056 50007
Loading
Personal Weather Stations






























Interactive Weather Map New forecast layout! Learn more

10-Day Weather Forecast

Advertisements
Track Severe Weather on mobile